Impacts TAF Board
For situational awareness. Not to be used for flight planning purposes.
IDs:

KATL - Atlanta/Hartsfield-J, GA, US

Issued at 0541 UTC 20 Oct 2018
Updated at 0559 UTC 20 Oct 2018
Potential Impact None Slight Moderate High
Time0552Z 20/06Z 20/07Z 20/08Z 20/09Z 20/10Z 20/11Z 20/12Z 20/13Z 20/14Z 20/15Z 20/16Z 20/17Z 20/18Z>>
Type OBS PRVL PRVL PRVL PRVL PRVL PRVL PRVL PRVL PRVL PRVL PRVL PRVL
  [TEMP]  
PRVL
  [TEMP]  
VIS 10 >6 >6 >6 >6 >6 >6 >6 >6 >6 >6 >6 >6
  [6]  
>6
  [6]  
CIG 150 100 100 100 100 8 8 8 8 12 12 12 12
  [12]  
12
  [12]  
Cover BKN BKN BKN BKN BKN BKN BKN BKN BKN BKN BKN BKN BKN
  [BKN]  
BKN
  [BKN]  
FltCat VFR VFR VFR VFR VFR IFR IFR IFR IFR MVFR MVFR MVFR MVFR
  [MVFR]  
MVFR
  [MVFR]  
WX -- -- -- -- -- -- -- -- -- VCSH VCSH VCSH VCSH
  [-SHRA]  
VCSH
  [-SHRA]  
WDir 210 190 190 190 190 220 220 220 220 290 290 290 290
[290]
290
[290]
WSpd 4 4 4 4 4 4 4 4 4 7 7 7 7
  [7]  
7
  [7]  
WGst -- -- -- -- -- -- -- -- -- -- -- -- --
  [--]  
--
  [--]  
Raw TAF
KATL 200541Z 2006/2112 19004KT P6SM BKN100
  FM201000 22004KT P6SM BKN008
  FM201400 29007KT P6SM VCSH BKN012
  TEMPO 2017/2020 6SM -SHRA
  FM202000 30011G19KT P6SM SCT040 SCT100
  FM210000 33013G22KT P6SM SKC


Raw METAR
KATL 200552Z 21004KT 10SM FEW009 SCT090 BKN150 BKN250 16/13 A3010 RMK AO2 SLP190 T01560133 10172 20156 58013
KATL 200452Z 20003KT 10SM BKN090 BKN120 BKN250 16/13 A3012 RMK AO2 SLP198 T01560133 401890117
KATL 200352Z 20003KT 10SM SCT150 BKN250 16/13 A3014 RMK AO2 SLP202 T01560128
KATL 200252Z 16003KT 10SM FEW150 BKN250 16/13 A3014 RMK AO2 SLP204 T01610128 58010

METAR Board
Radar Display
Forecast Discussion
For situational awareness. Not to be used for flight planning purposes.